Time;durP1;ratioP1;P1;durP2;ratioP2;P2;SDS_P1;SDS_P2;PMS_P1;PMS_P2;Temp;Humidity;BMP_temperature;BMP_pressure;BME280_temperature;BME280_humidity;BME280_pressure;Samples;Min_cycle;Max_cycle;Signal;HPM_P1;HPM_P2
2022/07/17 01:10:10;;;;;;;5.25;3.80;;;;;;;;;;4911935;22;20703;-73
2022/07/17 01:40:14;;;;;;;4.07;3.75;;;;;;;;;;4740563;28;20038;-79
2022/07/17 01:46:17;;;;;;;3.83;3.53;;;;;;;;;;5049499;28;20047;-72
2022/07/17 01:48:44;;;;;;;4.75;3.70;;;;;;;;;;4899481;28;20293;-72
2022/07/17 01:57:18;;;;;;;4.57;3.70;;;;;;;;;;4873205;28;21094;-73
2022/07/17 01:59:44;;;;;;;8.10;3.55;;;;;;;;;;4986614;28;20052;-72
2022/07/17 02:02:11;;;;;;;4.40;3.70;;;;;;;;;;5039112;28;20061;-74
2022/07/17 02:04:41;;;;;;;4.47;4.07;;;;;;;;;;5051785;28;20025;-73
2022/07/17 02:07:08;;;;;;;4.00;3.70;;;;;;;;;;5047306;28;20055;-73
2022/07/17 02:16:32;;;;;;;4.43;4.03;;;;;;;;;;5057036;28;20563;-72
2022/07/17 02:18:58;;;;;;;5.28;4.63;;;;;;;;;;5041508;28;20032;-72
2022/07/17 02:21:24;;;;;;;7.60;4.50;;;;;;;;;;4969003;28;20118;-73
2022/07/17 02:23:50;;;;;;;6.63;4.53;;;;;;;;;;5042994;28;20041;-72
2022/07/17 02:26:16;;;;;;;5.25;4.18;;;;;;;;;;5043598;28;20404;-72
2022/07/17 02:28:43;;;;;;;4.95;4.30;;;;;;;;;;5044344;28;20025;-72
2022/07/17 02:31:09;;;;;;;4.65;4.25;;;;;;;;;;5043783;28;20029;-72
2022/07/17 02:33:35;;;;;;;11.07;4.72;;;;;;;;;;5043939;28;20041;-72
2022/07/17 02:36:01;;;;;;;4.90;4.40;;;;;;;;;;5043146;28;20047;-73
2022/07/17 02:38:28;;;;;;;5.80;5.22;;;;;;;;;;5043846;28;20021;-72
2022/07/17 02:40:54;;;;;;;5.38;4.88;;;;;;;;;;5042421;28;20021;-72
2022/07/17 02:43:20;;;;;;;5.20;4.80;;;;;;;;;;5046725;28;20651;-73
2022/07/17 02:45:46;;;;;;;5.95;5.22;;;;;;;;;;5027493;28;20029;-72
2022/07/17 02:48:12;;;;;;;6.50;4.88;;;;;;;;;;5046123;28;20561;-74
2022/07/17 02:50:39;;;;;;;5.63;5.20;;;;;;;;;;5046384;28;20021;-72
2022/07/17 02:53:05;;;;;;;5.22;4.80;;;;;;;;;;5045977;28;20029;-72
2022/07/17 02:55:31;;;;;;;5.50;5.10;;;;;;;;;;5045231;28;20021;-72
2022/07/17 02:57:57;;;;;;;7.53;5.38;;;;;;;;;;5046713;28;20029;-75
2022/07/17 03:00:23;;;;;;;5.90;5.13;;;;;;;;;;5046541;28;20140;-73
2022/07/17 03:02:50;;;;;;;5.38;4.80;;;;;;;;;;5046248;28;20103;-72
2022/07/17 03:05:16;;;;;;;5.65;5.10;;;;;;;;;;5045831;28;20036;-72
2022/07/17 03:07:44;;;;;;;5.50;5.00;;;;;;;;;;5044281;28;20040;-73
2022/07/17 03:10:10;;;;;;;5.15;4.57;;;;;;;;;;5044149;28;20574;-72
2022/07/17 03:12:37;;;;;;;5.50;4.82;;;;;;;;;;5045256;28;20053;-72
2022/07/17 03:15:03;;;;;;;5.75;4.82;;;;;;;;;;5021742;28;20381;-73
2022/07/17 03:17:29;;;;;;;5.20;4.32;;;;;;;;;;5052046;28;20484;-73
2022/07/17 03:19:55;;;;;;;6.35;5.00;;;;;;;;;;5064428;28;20033;-73
2022/07/17 03:22:21;;;;;;;12.85;5.40;;;;;;;;;;5041731;28;20029;-73
2022/07/17 03:24:48;;;;;;;13.25;4.72;;;;;;;;;;5055256;28;20029;-73
2022/07/17 03:27:14;;;;;;;9.55;5.22;;;;;;;;;;5060867;28;20103;-74
2022/07/17 03:29:40;;;;;;;7.75;4.63;;;;;;;;;;5057558;28;20036;-73
2022/07/17 03:32:07;;;;;;;7.88;4.35;;;;;;;;;;5060757;28;20024;-73
2022/07/17 03:34:33;;;;;;;7.90;4.85;;;;;;;;;;5060491;28;20443;-73
2022/07/17 03:36:59;;;;;;;5.47;4.55;;;;;;;;;;5060620;28;20031;-74
2022/07/17 03:39:25;;;;;;;5.90;5.07;;;;;;;;;;5057860;28;20033;-73
2022/07/17 03:41:51;;;;;;;5.10;4.70;;;;;;;;;;5060780;28;20025;-73
2022/07/17 03:44:18;;;;;;;6.45;4.45;;;;;;;;;;5060175;28;20020;-73
2022/07/17 03:46:44;;;;;;;5.35;4.20;;;;;;;;;;5060678;28;20106;-74
2022/07/17 03:49:10;;;;;;;4.68;4.28;;;;;;;;;;5060449;28;20485;-74
2022/07/17 03:51:36;;;;;;;5.20;4.40;;;;;;;;;;5059752;28;20032;-74
2022/07/17 03:54:02;;;;;;;8.02;4.50;;;;;;;;;;5040717;28;20040;-73
2022/07/17 03:56:28;;;;;;;5.15;4.65;;;;;;;;;;5060100;28;20057;-73
2022/07/17 03:58:55;;;;;;;4.75;4.35;;;;;;;;;;5054838;28;20033;-73
2022/07/17 04:01:21;;;;;;;4.75;4.35;;;;;;;;;;5055321;28;20039;-73
2022/07/17 04:03:47;;;;;;;6.13;4.22;;;;;;;;;;5060246;28;20020;-73
2022/07/17 04:06:13;;;;;;;4.45;4.07;;;;;;;;;;5040921;28;20090;-74
2022/07/17 04:08:39;;;;;;;5.43;4.50;;;;;;;;;;5041970;28;20172;-77
2022/07/17 04:11:06;;;;;;;5.30;4.38;;;;;;;;;;5045886;28;20041;-73
2022/07/17 04:13:32;;;;;;;5.22;4.60;;;;;;;;;;5042463;28;20048;-74
2022/07/17 04:15:59;;;;;;;6.15;4.80;;;;;;;;;;5058317;28;20448;-74
2022/07/17 04:18:26;;;;;;;10.00;5.32;;;;;;;;;;5059210;28;20060;-73
2022/07/17 04:20:53;;;;;;;8.30;7.10;;;;;;;;;;5054618;28;20508;-73
2022/07/17 04:23:20;;;;;;;13.00;8.60;;;;;;;;;;5063729;28;20127;-73
2022/07/17 04:25:46;;;;;;;9.63;8.38;;;;;;;;;;5064252;28;20025;-74
2022/07/17 04:28:12;;;;;;;9.70;8.00;;;;;;;;;;5047995;28;20028;-73
2022/07/17 04:30:39;;;;;;;11.85;9.77;;;;;;;;;;5056175;28;20023;-74
2022/07/17 04:33:05;;;;;;;11.13;9.63;;;;;;;;;;5059230;28;20502;-74
2022/07/17 04:35:31;;;;;;;17.65;11.32;;;;;;;;;;5059754;28;20039;-73
2022/07/17 04:37:57;;;;;;;12.88;11.45;;;;;;;;;;5048355;28;20433;-76
2022/07/17 04:40:24;;;;;;;15.63;12.70;;;;;;;;;;5059162;28;20032;-74
2022/07/17 04:42:50;;;;;;;16.83;13.10;;;;;;;;;;5058569;28;20043;-73
2022/07/17 04:45:16;;;;;;;17.40;12.82;;;;;;;;;;5051733;28;20036;-73
2022/07/17 04:47:42;;;;;;;10.50;9.43;;;;;;;;;;5056537;28;20050;-73
2022/07/17 04:50:09;;;;;;;13.60;9.25;;;;;;;;;;5053110;28;20029;-73
2022/07/17 04:52:36;;;;;;;13.18;8.70;;;;;;;;;;5027241;28;20041;-73
2022/07/17 04:55:02;;;;;;;10.60;9.50;;;;;;;;;;5056543;28;20499;-73
2022/07/17 04:57:28;;;;;;;11.45;9.15;;;;;;;;;;5059237;28;20431;-74
2022/07/17 04:59:54;;;;;;;17.27;9.32;;;;;;;;;;5059446;28;20024;-73
2022/07/17 05:02:20;;;;;;;9.30;8.07;;;;;;;;;;5058857;28;20510;-73
2022/07/17 05:04:47;;;;;;;8.98;8.07;;;;;;;;;;5057109;28;20025;-73
2022/07/17 05:07:13;;;;;;;9.93;8.23;;;;;;;;;;5058806;28;20028;-73
2022/07/17 05:09:39;;;;;;;7.38;6.68;;;;;;;;;;5059341;28;20039;-74
2022/07/17 05:12:06;;;;;;;8.75;7.45;;;;;;;;;;5052480;28;20049;-73
2022/07/17 05:14:32;;;;;;;12.50;7.05;;;;;;;;;;5049928;28;20078;-74
2022/07/17 05:16:58;;;;;;;7.40;6.80;;;;;;;;;;5058572;28;20045;-73
2022/07/17 05:19:24;;;;;;;7.97;7.25;;;;;;;;;;5057621;28;20377;-73
2022/07/17 05:21:51;;;;;;;7.75;6.78;;;;;;;;;;5059035;28;20029;-73
2022/07/17 05:24:17;;;;;;;6.50;5.80;;;;;;;;;;5058920;28;20020;-73
2022/07/17 05:26:43;;;;;;;5.80;5.28;;;;;;;;;;5062438;28;20021;-74
2022/07/17 05:29:09;;;;;;;7.40;6.38;;;;;;;;;;5067914;28;20267;-75
2022/07/17 05:31:36;;;;;;;6.50;5.90;;;;;;;;;;5060955;28;20036;-75
2022/07/17 05:34:02;;;;;;;6.07;5.53;;;;;;;;;;5060435;28;20032;-74
2022/07/17 05:36:28;;;;;;;7.32;6.05;;;;;;;;;;5054996;28;20020;-73
2022/07/17 05:38:54;;;;;;;6.15;5.53;;;;;;;;;;5065401;28;20035;-74
2022/07/17 05:41:20;;;;;;;5.97;5.45;;;;;;;;;;5060929;28;20024;-73
2022/07/17 05:43:46;;;;;;;6.45;5.60;;;;;;;;;;5049413;28;20143;-73
2022/07/17 05:46:12;;;;;;;7.22;5.75;;;;;;;;;;5057945;28;20028;-73
2022/07/17 05:48:39;;;;;;;6.82;6.13;;;;;;;;;;5045611;28;20033;-73
2022/07/17 05:51:05;;;;;;;5.97;5.43;;;;;;;;;;5049669;28;20032;-73
2022/07/17 05:53:31;;;;;;;5.65;5.15;;;;;;;;;;5059783;28;20044;-80
2022/07/17 05:55:57;;;;;;;5.78;5.13;;;;;;;;;;5064286;28;20095;-73
2022/07/17 05:58:23;;;;;;;6.43;5.57;;;;;;;;;;5067104;28;20027;-73
2022/07/17 06:00:50;;;;;;;6.80;5.85;;;;;;;;;;5064190;28;20020;-73
2022/07/17 06:03:16;;;;;;;7.63;6.82;;;;;;;;;;5062566;28;20093;-72
2022/07/17 06:05:42;;;;;;;9.40;6.95;;;;;;;;;;5061428;28;20077;-71
2022/07/17 06:08:08;;;;;;;16.58;9.80;;;;;;;;;;5063849;28;20106;-71
2022/07/17 06:10:35;;;;;;;7.05;6.35;;;;;;;;;;5063971;28;20019;-71
2022/07/17 06:13:02;;;;;;;6.47;5.82;;;;;;;;;;5062542;28;20053;-71
2022/07/17 06:15:28;;;;;;;14.27;6.10;;;;;;;;;;5062797;28;20135;-72
2022/07/17 06:17:54;;;;;;;9.95;5.53;;;;;;;;;;5066505;28;20598;-72
2022/07/17 06:20:21;;;;;;;13.48;5.55;;;;;;;;;;5064450;28;20035;-72
2022/07/17 06:22:47;;;;;;;5.57;4.97;;;;;;;;;;5065933;28;20468;-72
2022/07/17 06:25:13;;;;;;;5.55;5.05;;;;;;;;;;5058995;28;20428;-72
2022/07/17 06:27:40;;;;;;;5.25;4.75;;;;;;;;;;5063914;28;20027;-72
2022/07/17 06:30:07;;;;;;;4.80;4.40;;;;;;;;;;5063310;28;20036;-72
2022/07/17 06:32:33;;;;;;;7.03;4.43;;;;;;;;;;5054820;28;20041;-72
2022/07/17 06:34:59;;;;;;;6.05;4.63;;;;;;;;;;5060895;28;20025;-71
2022/07/17 06:37:25;;;;;;;4.85;4.45;;;;;;;;;;5056562;28;20029;-72
2022/07/17 06:39:51;;;;;;;5.57;5.03;;;;;;;;;;5049726;28;20033;-71
2022/07/17 06:42:18;;;;;;;5.35;4.60;;;;;;;;;;5059846;28;20024;-72
2022/07/17 06:44:44;;;;;;;5.05;4.55;;;;;;;;;;5057973;28;20037;-71
2022/07/17 06:47:10;;;;;;;5.50;4.82;;;;;;;;;;5058695;28;20020;-72
2022/07/17 06:49:36;;;;;;;6.28;4.32;;;;;;;;;;5059015;28;20027;-71
2022/07/17 06:52:02;;;;;;;5.00;4.57;;;;;;;;;;5061151;28;20021;-71
2022/07/17 06:54:28;;;;;;;6.40;4.68;;;;;;;;;;5058192;28;20040;-72
2022/07/17 06:56:55;;;;;;;4.68;4.28;;;;;;;;;;5055957;28;20406;-71
2022/07/17 06:59:21;;;;;;;5.10;4.70;;;;;;;;;;5059347;28;20570;-72
2022/07/17 07:01:48;;;;;;;5.32;4.60;;;;;;;;;;5057549;28;20525;-72
2022/07/17 07:04:14;;;;;;;5.80;5.20;;;;;;;;;;5058505;28;20024;-72
2022/07/17 07:06:40;;;;;;;7.05;4.78;;;;;;;;;;5059211;28;20188;-72
2022/07/17 07:09:06;;;;;;;5.93;5.20;;;;;;;;;;5058050;28;20052;-72
2022/07/17 07:11:32;;;;;;;5.60;5.10;;;;;;;;;;5061086;28;20466;-72
2022/07/17 07:13:58;;;;;;;5.60;5.00;;;;;;;;;;5058564;28;20128;-72
2022/07/17 07:16:24;;;;;;;5.40;4.85;;;;;;;;;;5059554;28;20409;-72
2022/07/17 07:18:51;;;;;;;5.00;4.60;;;;;;;;;;5057188;28;20049;-72
2022/07/17 07:21:17;;;;;;;5.50;5.00;;;;;;;;;;5057881;28;20050;-72
2022/07/17 07:23:43;;;;;;;5.63;5.10;;;;;;;;;;5056498;28;20029;-70
2022/07/17 07:26:09;;;;;;;5.72;4.95;;;;;;;;;;5060579;28;20484;-71
2022/07/17 07:28:36;;;;;;;7.18;5.10;;;;;;;;;;5058945;28;20028;-72
2022/07/17 07:31:02;;;;;;;6.15;5.60;;;;;;;;;;5053170;28;20020;-71
2022/07/17 07:33:28;;;;;;;8.68;6.03;;;;;;;;;;5058683;28;20081;-71
2022/07/17 07:35:54;;;;;;;6.47;4.97;;;;;;;;;;5057968;28;20028;-71
2022/07/17 07:38:20;;;;;;;5.68;5.18;;;;;;;;;;5054838;28;20083;-72
2022/07/17 07:40:46;;;;;;;6.13;5.53;;;;;;;;;;5060348;28;20052;-71
2022/07/17 07:43:12;;;;;;;15.43;5.53;;;;;;;;;;5059091;28;20024;-71
2022/07/17 07:45:39;;;;;;;5.82;5.32;;;;;;;;;;5056213;28;20055;-71
2022/07/17 07:48:05;;;;;;;5.82;5.32;;;;;;;;;;5058870;28;20062;-71
2022/07/17 07:50:31;;;;;;;6.15;5.60;;;;;;;;;;5054352;28;20032;-71
2022/07/17 07:52:57;;;;;;;6.72;5.40;;;;;;;;;;5032213;28;20036;-71
2022/07/17 07:55:24;;;;;;;5.53;5.03;;;;;;;;;;5060129;28;20373;-71
2022/07/17 07:57:50;;;;;;;6.03;5.50;;;;;;;;;;5060736;28;20127;-71
2022/07/17 08:00:17;;;;;;;5.60;5.10;;;;;;;;;;5060849;28;20602;-71
2022/07/17 08:02:43;;;;;;;5.35;4.95;;;;;;;;;;5056334;28;20033;-71
2022/07/17 08:05:09;;;;;;;6.05;5.43;;;;;;;;;;5058948;28;20031;-72
2022/07/17 08:07:36;;;;;;;6.40;4.93;;;;;;;;;;5058512;28;20029;-72
2022/07/17 08:10:03;;;;;;;5.30;4.90;;;;;;;;;;5057160;28;20035;-72
2022/07/17 08:12:29;;;;;;;5.43;5.00;;;;;;;;;;5057443;28;20438;-71
2022/07/17 08:14:55;;;;;;;6.07;5.47;;;;;;;;;;5030048;28;20029;-77
2022/07/17 08:17:21;;;;;;;6.40;5.80;;;;;;;;;;5050464;28;20734;-72
2022/07/17 08:19:48;;;;;;;7.30;5.55;;;;;;;;;;5057845;28;20032;-74
2022/07/17 08:22:14;;;;;;;10.32;5.57;;;;;;;;;;5032548;28;20028;-78
2022/07/17 08:24:40;;;;;;;6.07;5.57;;;;;;;;;;5055929;28;20536;-78
2022/07/17 08:27:06;;;;;;;6.03;5.43;;;;;;;;;;5057664;28;20513;-77
2022/07/17 08:29:32;;;;;;;5.82;5.30;;;;;;;;;;5056278;28;20124;-76
2022/07/17 08:31:58;;;;;;;5.95;5.50;;;;;;;;;;5047519;28;20028;-73
2022/07/17 08:34:24;;;;;;;5.85;5.40;;;;;;;;;;5054250;28;20032;-74
2022/07/17 08:36:51;;;;;;;6.30;5.40;;;;;;;;;;5053049;28;20300;-75
2022/07/17 08:39:17;;;;;;;5.82;5.32;;;;;;;;;;5057124;28;20063;-74
2022/07/17 08:41:43;;;;;;;6.10;5.47;;;;;;;;;;5051582;28;20029;-73
2022/07/17 08:44:09;;;;;;;6.60;5.97;;;;;;;;;;5056285;28;20501;-74
2022/07/17 08:46:36;;;;;;;5.90;5.28;;;;;;;;;;5056685;28;20070;-76
2022/07/17 08:49:03;;;;;;;5.70;5.20;;;;;;;;;;5037752;28;20029;-74
2022/07/17 08:51:29;;;;;;;5.80;5.30;;;;;;;;;;5056728;28;20025;-77
2022/07/17 08:53:57;;;;;;;5.85;5.25;;;;;;;;;;5049393;28;20648;-76
2022/07/17 08:56:23;;;;;;;5.50;5.10;;;;;;;;;;5056830;28;20024;-72
2022/07/17 08:58:49;;;;;;;6.25;5.65;;;;;;;;;;5058951;28;20027;-72
2022/07/17 09:01:16;;;;;;;6.45;5.47;;;;;;;;;;5053280;28;20039;-72
2022/07/17 09:03:42;;;;;;;5.97;5.47;;;;;;;;;;5055450;28;20529;-71
2022/07/17 09:06:18;;;;;;;6.13;5.63;;;;;;;;;;5056172;28;20063;-75
2022/07/17 09:08:45;;;;;;;6.50;5.95;;;;;;;;;;5054611;28;20028;-73
2022/07/17 09:11:11;;;;;;;6.50;5.63;;;;;;;;;;5056755;28;21438;-73
2022/07/17 09:13:37;;;;;;;6.45;5.93;;;;;;;;;;5052587;28;20893;-72
2022/07/17 09:16:06;;;;;;;6.78;5.78;;;;;;;;;;5054745;28;20021;-73
2022/07/17 09:18:32;;;;;;;5.63;5.22;;;;;;;;;;5057466;28;20118;-72
2022/07/17 09:20:58;;;;;;;6.13;5.63;;;;;;;;;;5051648;28;20043;-73
2022/07/17 09:23:26;;;;;;;5.90;5.40;;;;;;;;;;5057438;28;20055;-71
2022/07/17 09:25:55;;;;;;;6.53;5.45;;;;;;;;;;5054703;28;20571;-72
2022/07/17 09:28:21;;;;;;;5.63;5.22;;;;;;;;;;5057038;28;20020;-72
2022/07/17 09:30:49;;;;;;;5.68;5.07;;;;;;;;;;5049890;28;20029;-72
2022/07/17 09:33:17;;;;;;;6.05;5.50;;;;;;;;;;5047021;28;20033;-72
2022/07/17 09:35:53;;;;;;;5.95;5.45;;;;;;;;;;5049929;28;20119;-72
2022/07/17 09:38:39;;;;;;;5.72;5.22;;;;;;;;;;5050171;28;20109;-72
2022/07/17 09:41:11;;;;;;;5.97;5.38;;;;;;;;;;5048618;28;20068;-72
2022/07/17 09:43:42;;;;;;;5.80;5.32;;;;;;;;;;5048464;28;20060;-72
2022/07/17 09:46:09;;;;;;;8.57;5.38;;;;;;;;;;5049133;28;20420;-72
2022/07/17 09:48:36;;;;;;;5.43;4.93;;;;;;;;;;5050603;28;20039;-73
2022/07/17 09:51:03;;;;;;;5.85;5.35;;;;;;;;;;5051763;28;20029;-79
2022/07/17 09:53:30;;;;;;;6.07;5.57;;;;;;;;;;5040456;28;20044;-72
2022/07/17 09:55:56;;;;;;;5.18;4.78;;;;;;;;;;5047014;28;20207;-74
2022/07/17 09:58:24;;;;;;;5.65;5.25;;;;;;;;;;5047189;28;20026;-75
2022/07/17 10:00:51;;;;;;;6.20;5.60;;;;;;;;;;5055816;28;20009;-73
2022/07/17 10:03:19;;;;;;;6.63;5.47;;;;;;;;;;5049404;28;20041;-72
2022/07/17 10:05:45;;;;;;;6.40;5.80;;;;;;;;;;5047360;28;20119;-73
2022/07/17 10:08:12;;;;;;;6.63;5.70;;;;;;;;;;5045912;28;20028;-73
2022/07/17 10:10:38;;;;;;;6.30;5.80;;;;;;;;;;5053788;28;20036;-73
2022/07/17 10:13:05;;;;;;;5.80;5.40;;;;;;;;;;5052482;28;20047;-72
2022/07/17 10:15:31;;;;;;;6.20;5.70;;;;;;;;;;5045967;28;20488;-73
2022/07/17 10:18:06;;;;;;;6.30;5.68;;;;;;;;;;5042671;28;20045;-72
2022/07/17 10:20:32;;;;;;;6.68;6.07;;;;;;;;;;5043851;28;20032;-72
2022/07/17 10:22:59;;;;;;;6.38;5.88;;;;;;;;;;5051321;28;20032;-72
2022/07/17 10:25:25;;;;;;;6.68;6.18;;;;;;;;;;5058171;28;20582;-72
2022/07/17 10:27:53;;;;;;;6.40;5.80;;;;;;;;;;5055277;28;20029;-73
2022/07/17 10:30:21;;;;;;;8.98;5.95;;;;;;;;;;5057433;28;20115;-73
2022/07/17 10:32:58;;;;;;;6.68;6.07;;;;;;;;;;5056181;28;20043;-72
2022/07/17 10:35:25;;;;;;;6.30;5.70;;;;;;;;;;5053206;28;20111;-72
2022/07/17 10:37:52;;;;;;;6.60;6.00;;;;;;;;;;5048428;28;20024;-72
2022/07/17 10:40:18;;;;;;;6.60;6.10;;;;;;;;;;5023156;28;20484;-72
2022/07/17 10:42:50;;;;;;;6.93;6.32;;;;;;;;;;5056212;28;20492;-72
2022/07/17 10:45:24;;;;;;;7.07;6.40;;;;;;;;;;5054377;28;20494;-72
2022/07/17 10:47:53;;;;;;;6.75;6.25;;;;;;;;;;5058554;28;20092;-73
2022/07/17 10:50:22;;;;;;;7.28;6.53;;;;;;;;;;5059261;28;20029;-74
2022/07/17 10:53:06;;;;;;;9.98;7.32;;;;;;;;;;5061793;28;20511;-71
2022/07/17 10:55:33;;;;;;;7.57;6.88;;;;;;;;;;5055598;28;20373;-72
2022/07/17 10:57:59;;;;;;;8.05;7.25;;;;;;;;;;5057593;28;20682;-71
2022/07/17 11:00:26;;;;;;;7.05;6.40;;;;;;;;;;5063253;28;20070;-71
2022/07/17 11:02:52;;;;;;;7.40;6.55;;;;;;;;;;5063199;28;20023;-70
2022/07/17 11:05:18;;;;;;;8.40;7.40;;;;;;;;;;5051406;28;20098;-77
2022/07/17 11:07:52;;;;;;;7.45;6.85;;;;;;;;;;5062441;28;20016;-70
2022/07/17 11:10:18;;;;;;;27.52;9.70;;;;;;;;;;5050357;28;20142;-76
2022/07/17 11:12:44;;;;;;;8.45;7.63;;;;;;;;;;5050390;28;20029;-72
2022/07/17 11:15:10;;;;;;;7.60;6.90;;;;;;;;;;5053161;28;20021;-75
2022/07/17 11:17:37;;;;;;;8.10;7.38;;;;;;;;;;5062185;28;20056;-71
2022/07/17 11:20:04;;;;;;;8.77;7.80;;;;;;;;;;5060083;28;20670;-74
2022/07/17 11:22:30;;;;;;;7.90;7.25;;;;;;;;;;5060933;28;20103;-72
2022/07/17 11:24:56;;;;;;;7.70;7.10;;;;;;;;;;5061323;28;20039;-71
2022/07/17 11:27:27;;;;;;;8.45;7.82;;;;;;;;;;5060392;28;20543;-73
2022/07/17 11:29:54;;;;;;;8.87;8.17;;;;;;;;;;5058387;28;20669;-79
2022/07/17 11:32:21;;;;;;;9.43;8.60;;;;;;;;;;5059602;28;20023;-71
2022/07/17 11:34:47;;;;;;;8.90;8.18;;;;;;;;;;5059843;28;20041;-71
2022/07/17 11:37:13;;;;;;;9.38;8.50;;;;;;;;;;5056986;28;20021;-73
2022/07/17 11:39:41;;;;;;;8.32;7.60;;;;;;;;;;5058911;28;20024;-76
2022/07/17 11:42:11;;;;;;;8.93;8.10;;;;;;;;;;5055775;28;20139;-79
2022/07/17 11:44:40;;;;;;;8.00;7.25;;;;;;;;;;5060973;28;20087;-81
2022/07/17 11:47:07;;;;;;;8.07;7.38;;;;;;;;;;5060716;28;20032;-73
2022/07/17 11:49:34;;;;;;;8.77;7.97;;;;;;;;;;5045603;28;20021;-74
2022/07/17 11:52:11;;;;;;;9.68;8.52;;;;;;;;;;5048319;28;20021;-74
2022/07/17 11:54:47;;;;;;;8.90;8.00;;;;;;;;;;5054991;28;20037;-80
2022/07/17 11:57:14;;;;;;;8.40;7.75;;;;;;;;;;5060449;28;20028;-77
2022/07/17 11:59:41;;;;;;;8.93;8.18;;;;;;;;;;5059843;28;20499;-75
2022/07/17 12:02:11;;;;;;;8.60;7.82;;;;;;;;;;5061450;28;20538;-77
2022/07/17 12:04:48;;;;;;;8.85;8.15;;;;;;;;;;5057732;28;20067;-74
2022/07/17 12:07:14;;;;;;;8.88;8.02;;;;;;;;;;5061408;28;20682;-76
2022/07/17 12:09:40;;;;;;;7.70;7.10;;;;;;;;;;5060472;28;20637;-71
2022/07/17 12:12:07;;;;;;;8.20;7.28;;;;;;;;;;5038241;28;20036;-73
2022/07/17 12:14:33;;;;;;;8.27;7.47;;;;;;;;;;5060990;28;20037;-71
2022/07/17 12:17:03;;;;;;;7.63;7.13;;;;;;;;;;5048708;28;20061;-71
2022/07/17 12:19:30;;;;;;;8.05;7.35;;;;;;;;;;5050769;28;20396;-73
2022/07/17 12:22:01;;;;;;;6.95;6.45;;;;;;;;;;5045883;28;20025;-73
2022/07/17 12:24:29;;;;;;;10.77;7.40;;;;;;;;;;5051554;28;20535;-71
2022/07/17 12:26:56;;;;;;;10.00;6.78;;;;;;;;;;5057332;28;20114;-73
2022/07/17 12:29:22;;;;;;;7.20;6.63;;;;;;;;;;5061731;28;20028;-72
2022/07/17 12:31:49;;;;;;;7.95;6.68;;;;;;;;;;5061270;28;20074;-72
2022/07/17 12:34:15;;;;;;;7.38;6.57;;;;;;;;;;5061407;28;20103;-72
2022/07/17 12:36:41;;;;;;;6.85;6.18;;;;;;;;;;5059069;28;20029;-72
2022/07/17 12:39:08;;;;;;;7.55;6.95;;;;;;;;;;5053737;28;20032;-74
2022/07/17 12:41:35;;;;;;;6.60;6.15;;;;;;;;;;5061423;28;20021;-72
2022/07/17 12:44:01;;;;;;;7.07;6.38;;;;;;;;;;5056903;28;20017;-72
2022/07/17 12:46:27;;;;;;;8.00;7.28;;;;;;;;;;5041783;28;20032;-72
2022/07/17 12:48:54;;;;;;;7.38;6.68;;;;;;;;;;5048147;28;20036;-73
2022/07/17 12:51:20;;;;;;;8.02;6.80;;;;;;;;;;5060640;28;20024;-73
2022/07/17 12:53:46;;;;;;;7.20;6.43;;;;;;;;;;5060940;28;20025;-73
2022/07/17 12:56:12;;;;;;;7.07;6.47;;;;;;;;;;5055547;28;20025;-74
2022/07/17 12:58:38;;;;;;;7.20;6.70;;;;;;;;;;5053535;28;20362;-71
2022/07/17 13:01:05;;;;;;;6.85;6.35;;;;;;;;;;5043955;28;20040;-72
2022/07/17 13:03:32;;;;;;;7.03;6.43;;;;;;;;;;5054799;28;20131;-73
2022/07/17 13:06:00;;;;;;;7.93;7.20;;;;;;;;;;5061099;28;20528;-71
2022/07/17 13:08:27;;;;;;;7.30;6.70;;;;;;;;;;5058342;28;20109;-71
2022/07/17 13:10:53;;;;;;;7.13;6.60;;;;;;;;;;5058436;28;20025;-72
2022/07/17 13:13:20;;;;;;;6.88;6.30;;;;;;;;;;5057968;28;20403;-75
2022/07/17 13:15:46;;;;;;;7.95;7.32;;;;;;;;;;5058436;28;20025;-71
2022/07/17 13:18:13;;;;;;;6.45;5.90;;;;;;;;;;5054040;28;20055;-71
2022/07/17 13:20:40;;;;;;;7.75;6.97;;;;;;;;;;5060009;28;20664;-71
2022/07/17 13:23:06;;;;;;;7.35;6.35;;;;;;;;;;5036395;28;20021;-71
2022/07/17 13:25:32;;;;;;;7.03;6.43;;;;;;;;;;5039403;28;20044;-72
2022/07/17 13:27:58;;;;;;;8.10;6.75;;;;;;;;;;5056154;28;20020;-71
2022/07/17 13:30:25;;;;;;;7.20;6.30;;;;;;;;;;5049118;28;20025;-71
2022/07/17 13:32:51;;;;;;;6.95;6.25;;;;;;;;;;5060207;28;20074;-71
2022/07/17 13:35:17;;;;;;;7.00;6.40;;;;;;;;;;5054869;28;20024;-71
2022/07/17 13:37:44;;;;;;;6.35;5.85;;;;;;;;;;5055698;28;20053;-71
2022/07/17 13:40:10;;;;;;;6.60;6.10;;;;;;;;;;5054030;28;20481;-71
2022/07/17 13:42:37;;;;;;;7.18;6.57;;;;;;;;;;5061197;28;20063;-72
2022/07/17 13:45:03;;;;;;;7.18;6.68;;;;;;;;;;5051586;28;20060;-71
2022/07/17 13:47:29;;;;;;;6.97;6.28;;;;;;;;;;5060200;28;20611;-72
2022/07/17 13:49:56;;;;;;;6.85;6.25;;;;;;;;;;5035655;28;20021;-71
2022/07/17 13:52:22;;;;;;;6.90;6.20;;;;;;;;;;5059981;28;20056;-76
2022/07/17 13:54:49;;;;;;;6.70;6.20;;;;;;;;;;5037460;28;20034;-73
2022/07/17 13:57:15;;;;;;;6.55;5.95;;;;;;;;;;5063628;28;20104;-72
2022/07/17 13:59:41;;;;;;;7.22;6.53;;;;;;;;;;5050085;28;20140;-73
2022/07/17 14:02:08;;;;;;;6.50;6.00;;;;;;;;;;5059242;28;20389;-72
2022/07/17 14:04:34;;;;;;;6.47;5.90;;;;;;;;;;5041054;28;20101;-74
2022/07/17 14:07:00;;;;;;;7.10;6.50;;;;;;;;;;5053331;28;20056;-73
2022/07/17 14:09:26;;;;;;;6.50;6.00;;;;;;;;;;5043158;28;20995;-73
2022/07/17 14:11:53;;;;;;;7.03;6.43;;;;;;;;;;5055409;28;20117;-72
2022/07/17 14:14:20;;;;;;;7.45;5.90;;;;;;;;;;5056064;28;20579;-72
2022/07/17 14:16:46;;;;;;;6.47;5.88;;;;;;;;;;5057058;28;20037;-73
2022/07/17 14:19:12;;;;;;;6.90;6.30;;;;;;;;;;5059606;28;20048;-72
2022/07/17 14:21:38;;;;;;;6.45;6.03;;;;;;;;;;5057420;28;21175;-72
2022/07/17 14:24:05;;;;;;;7.15;6.18;;;;;;;;;;5053497;28;20058;-73
2022/07/17 14:26:32;;;;;;;11.50;6.45;;;;;;;;;;5050445;28;20017;-71
2022/07/17 14:28:58;;;;;;;12.68;7.10;;;;;;;;;;5056181;28;20032;-71
2022/07/17 14:31:25;;;;;;;6.85;6.15;;;;;;;;;;5061060;28;20085;-71
2022/07/17 14:33:51;;;;;;;11.65;6.25;;;;;;;;;;5051039;28;20036;-72
2022/07/17 14:36:17;;;;;;;6.65;6.05;;;;;;;;;;5052100;28;20551;-72
2022/07/17 14:38:43;;;;;;;5.93;5.43;;;;;;;;;;5052178;28;20017;-72
2022/07/17 14:41:10;;;;;;;6.97;6.35;;;;;;;;;;5046547;28;20389;-72
2022/07/17 14:43:36;;;;;;;6.78;6.20;;;;;;;;;;5053067;28;20021;-72
2022/07/17 14:46:02;;;;;;;7.05;5.97;;;;;;;;;;5048898;28;20100;-70
2022/07/17 14:48:28;;;;;;;5.88;5.07;;;;;;;;;;5057452;28;20044;-71
2022/07/17 14:50:55;;;;;;;5.28;4.88;;;;;;;;;;5064092;28;20033;-72
2022/07/17 14:53:21;;;;;;;6.25;5.53;;;;;;;;;;5050939;28;20029;-72
2022/07/17 14:55:47;;;;;;;5.75;5.25;;;;;;;;;;5057567;28;20198;-71
2022/07/17 14:58:13;;;;;;;6.57;5.13;;;;;;;;;;5049806;28;20458;-72
2022/07/17 15:00:40;;;;;;;6.55;5.63;;;;;;;;;;5047604;28;20101;-71
2022/07/17 15:03:06;;;;;;;6.60;6.00;;;;;;;;;;5054108;28;20025;-71
2022/07/17 15:05:32;;;;;;;6.05;5.55;;;;;;;;;;5049402;28;20032;-71
2022/07/17 15:07:58;;;;;;;6.25;5.70;;;;;;;;;;5046328;28;20698;-74
2022/07/17 15:10:24;;;;;;;5.70;5.20;;;;;;;;;;5055939;28;20052;-72
2022/07/17 15:12:50;;;;;;;5.80;5.30;;;;;;;;;;5049945;28;20082;-71
2022/07/17 15:15:17;;;;;;;6.00;5.40;;;;;;;;;;5056852;28;20033;-71
2022/07/17 15:17:43;;;;;;;5.57;5.07;;;;;;;;;;5049498;28;20594;-72
2022/07/17 15:20:09;;;;;;;6.63;5.75;;;;;;;;;;5031555;28;20492;-71
2022/07/17 15:22:35;;;;;;;6.65;6.05;;;;;;;;;;5057900;28;20044;-72
2022/07/17 15:25:01;;;;;;;6.05;5.55;;;;;;;;;;5057961;28;20013;-73
2022/07/17 15:27:28;;;;;;;5.68;5.28;;;;;;;;;;5057216;28;20032;-72
2022/07/17 15:29:54;;;;;;;6.13;5.63;;;;;;;;;;5055187;28;20042;-72
2022/07/17 15:32:20;;;;;;;6.00;5.40;;;;;;;;;;5050690;28;20330;-73
2022/07/17 15:34:46;;;;;;;8.10;7.30;;;;;;;;;;5054478;28;20037;-73
2022/07/17 15:37:12;;;;;;;7.75;6.72;;;;;;;;;;5054457;28;20024;-72
2022/07/17 15:39:39;;;;;;;7.72;6.80;;;;;;;;;;5049575;28;20108;-73
2022/07/17 15:42:05;;;;;;;6.72;6.32;;;;;;;;;;5053971;28;20062;-73
2022/07/17 15:44:31;;;;;;;6.75;6.25;;;;;;;;;;5059990;28;20017;-75
2022/07/17 15:46:57;;;;;;;7.45;6.60;;;;;;;;;;5055469;28;20433;-72
2022/07/17 15:49:25;;;;;;;6.90;6.40;;;;;;;;;;5051693;28;20752;-72
2022/07/17 15:51:51;;;;;;;7.07;6.47;;;;;;;;;;5051553;28;20040;-72
2022/07/17 15:54:20;;;;;;;6.90;6.30;;;;;;;;;;5061243;28;20054;-72
2022/07/17 15:56:48;;;;;;;6.55;6.05;;;;;;;;;;5061195;28;20037;-72
2022/07/17 15:59:14;;;;;;;7.10;6.40;;;;;;;;;;5056341;28;20033;-72
2022/07/17 16:01:40;;;;;;;6.65;6.10;;;;;;;;;;5053808;28;20099;-72
2022/07/17 16:04:06;;;;;;;5.97;5.47;;;;;;;;;;5062063;28;20029;-73
2022/07/17 16:06:33;;;;;;;5.22;4.88;;;;;;;;;;5060324;28;20029;-72
2022/07/17 16:08:59;;;;;;;6.45;5.63;;;;;;;;;;5047699;28;20036;-72
2022/07/17 16:11:25;;;;;;;6.20;5.57;;;;;;;;;;5054100;28;20380;-72
2022/07/17 16:13:51;;;;;;;6.35;5.75;;;;;;;;;;5041650;28;20036;-72
2022/07/17 16:16:17;;;;;;;5.78;5.15;;;;;;;;;;5062058;28;20024;-72
2022/07/17 16:18:44;;;;;;;8.35;6.10;;;;;;;;;;5056107;28;20047;-72
2022/07/17 16:21:13;;;;;;;5.30;4.90;;;;;;;;;;5061450;28;20130;-73
2022/07/17 16:23:39;;;;;;;5.32;4.85;;;;;;;;;;5055317;28;20024;-72
2022/07/17 16:26:06;;;;;;;5.05;4.60;;;;;;;;;;5044189;28;20476;-73
2022/07/17 16:28:32;;;;;;;6.03;4.78;;;;;;;;;;5061409;28;20021;-73
2022/07/17 16:30:58;;;;;;;4.97;4.35;;;;;;;;;;5060729;28;20028;-71